New Preston, Connecticut
Current Conditions -  °F | °C
As of 6:45 AM on Friday 24 Oct 2014 (Local Time) from KOXC Reporting Station
Light Rain Light Rain  
Wind Chill: 42°   Ceiling: 4200
Heat Index: 46°   Visibility: 8mi
Dew Point: 39°   Wind: 8mph
Humidity: 76%   Direction: 340°NNW
Pressure: 29.76"   Gusts: NA
Location:  41.6879°N, 73.3378°W
Report Text: KOXC 241045Z 34007KT 8SM -RA OVC042 08/04 A2976
Loading
Personal Weather Stations






























Interactive Weather Map
Tropical Storm Tracking
New forecast layout! Learn more

10-Day Weather Forecast

Advertisements
Track Severe Weather on mobile